createdAt,value
2022-08-31T00:01:38.387Z,93056.75
2022-08-31T00:04:21.420Z,93058.34
2022-08-31T00:07:04.515Z,93056.16
2022-08-31T00:09:47.601Z,93055.91
2022-08-31T00:12:30.840Z,93049.31
2022-08-31T00:15:17.628Z,93050.31
2022-08-31T00:18:00.855Z,93044.28
2022-08-31T00:20:44.613Z,93037.84
2022-08-31T00:23:27.609Z,93042.00
2022-08-31T00:26:10.764Z,93042.56
2022-08-31T00:28:54.113Z,93042.94
2022-08-31T00:31:38.501Z,93046.75
2022-08-31T00:34:22.479Z,93046.91
2022-08-31T00:37:05.529Z,93039.50
2022-08-31T00:39:48.538Z,93034.84
2022-08-31T00:42:31.590Z,93035.69
2022-08-31T00:45:15.197Z,93040.50
2022-08-31T00:47:59.580Z,93041.28
2022-08-31T00:50:42.589Z,93034.47
2022-08-31T00:53:26.231Z,93043.28
2022-08-31T00:56:10.248Z,93045.66
2022-08-31T00:58:54.738Z,93048.22
2022-08-31T01:01:37.951Z,93042.75
2022-08-31T01:04:22.843Z,93038.75
2022-08-31T01:07:08.124Z,93037.88
2022-08-31T01:09:55.359Z,93034.06
2022-08-31T01:12:39.404Z,93030.41
2022-08-31T01:15:23.253Z,93031.81
2022-08-31T01:18:07.862Z,93031.66
2022-08-31T01:21:01.796Z,93032.91
2022-08-31T01:23:46.766Z,93035.50
2022-08-31T01:26:32.740Z,93034.69
2022-08-31T01:29:17.335Z,93033.06
2022-08-31T01:32:00.956Z,93032.28
2022-08-31T01:34:44.052Z,93028.44
2022-08-31T01:37:29.382Z,93025.84
2022-08-31T01:40:14.615Z,93025.22
2022-08-31T01:42:58.041Z,93022.63
2022-08-31T01:45:41.240Z,93025.59
2022-08-31T01:48:25.123Z,93032.75
2022-08-31T01:51:09.014Z,93035.19
2022-08-31T01:53:56.861Z,93039.19
2022-08-31T01:56:43.354Z,93041.78
2022-08-31T01:59:30.532Z,93041.63
2022-08-31T02:02:21.073Z,93045.59
2022-08-31T02:05:04.278Z,93047.13
2022-08-31T02:07:47.823Z,93034.88
2022-08-31T02:10:31.149Z,93040.81
2022-08-31T02:13:15.979Z,93039.75
2022-08-31T02:15:58.922Z,93041.31
2022-08-31T02:18:42.091Z,93033.25
2022-08-31T02:21:25.763Z,93023.28
2022-08-31T02:24:11.343Z,93025.25
2022-08-31T02:26:54.507Z,93022.03
2022-08-31T02:29:38.998Z,93021.84
2022-08-31T02:32:22.233Z,93017.00
2022-08-31T02:35:06.816Z,93013.97
2022-08-31T02:37:50.175Z,93019.50
2022-08-31T02:40:35.436Z,93017.28
2022-08-31T02:43:19.417Z,93012.84
2022-08-31T02:46:10.919Z,93015.25
2022-08-31T02:49:01.362Z,93014.81
2022-08-31T02:51:45.159Z,93014.81
2022-08-31T02:54:28.262Z,93024.56
2022-08-31T02:57:11.329Z,93020.38
2022-08-31T02:59:54.400Z,93022.16
2022-08-31T03:02:41.094Z,93018.59
2022-08-31T03:05:25.413Z,93021.97
2022-08-31T03:08:08.902Z,93018.94
2022-08-31T03:10:52.175Z,93011.72
2022-08-31T03:13:35.346Z,93010.09
2022-08-31T03:16:18.402Z,93008.50
2022-08-31T03:19:02.827Z,93007.31
2022-08-31T03:21:46.822Z,93003.31
2022-08-31T03:24:31.791Z,92997.06
2022-08-31T03:27:15.269Z,93002.16
2022-08-31T03:29:58.627Z,92998.69
2022-08-31T03:32:45.567Z,92995.03
2022-08-31T03:35:30.395Z,92997.00
2022-08-31T03:38:14.106Z,92991.81
2022-08-31T03:40:57.558Z,92994.22
2022-08-31T03:43:40.679Z,92995.84
2022-08-31T03:46:24.461Z,92990.47
2022-08-31T03:49:07.856Z,92990.28
2022-08-31T03:51:53.190Z,92992.34
2022-08-31T03:54:38.201Z,92989.56
2022-08-31T03:57:21.246Z,92988.19
2022-08-31T04:00:06.685Z,92994.47
2022-08-31T04:03:00.076Z,92995.53
2022-08-31T04:05:48.947Z,93000.16
2022-08-31T04:08:51.895Z,92996.84
2022-08-31T04:12:18.875Z,92995.84
2022-08-31T04:15:22.349Z,92996.91
2022-08-31T04:18:37.755Z,93004.13
2022-08-31T04:21:24.336Z,93009.59
2022-08-31T04:24:09.475Z,93001.25
2022-08-31T04:26:53.631Z,93018.88
2022-08-31T04:29:36.636Z,93012.69
2022-08-31T04:32:19.894Z,93016.28
2022-08-31T04:35:03.633Z,93020.06
2022-08-31T04:37:49.001Z,93014.88
2022-08-31T04:40:33.577Z,93019.84
2022-08-31T04:43:16.787Z,93013.69
2022-08-31T04:45:59.934Z,93013.69
2022-08-31T04:48:43.222Z,93016.69
2022-08-31T04:51:28.763Z,93018.13
2022-08-31T04:54:14.107Z,93018.56
2022-08-31T04:57:00.422Z,93023.41
2022-08-31T04:59:47.869Z,93019.81
2022-08-31T05:02:52.775Z,93020.03
2022-08-31T05:05:38.967Z,93019.66
2022-08-31T05:08:22.643Z,93021.09
2022-08-31T05:11:10.456Z,93028.50
2022-08-31T05:13:57.310Z,93023.56
2022-08-31T05:16:41.697Z,93031.78
2022-08-31T05:19:25.101Z,93036.44
2022-08-31T05:22:08.091Z,93031.66
2022-08-31T05:24:52.631Z,93030.28
2022-08-31T05:27:36.325Z,93037.69
2022-08-31T05:30:20.899Z,93041.91
2022-08-31T05:33:16.910Z,93044.31
2022-08-31T05:36:02.140Z,93041.53
2022-08-31T05:38:45.336Z,93050.16
2022-08-31T05:41:31.005Z,93044.75
2022-08-31T05:44:14.720Z,93046.97
2022-08-31T05:47:03.893Z,93039.34
2022-08-31T05:49:47.856Z,93038.34
2022-08-31T05:52:34.884Z,93038.19
2022-08-31T05:55:19.547Z,93039.41
2022-08-31T05:58:02.467Z,93040.63
2022-08-31T06:00:45.470Z,93040.47
2022-08-31T06:03:49.783Z,93045.88
2022-08-31T06:06:33.080Z,93042.72
2022-08-31T06:09:16.246Z,93049.34
2022-08-31T06:12:00.644Z,93045.38
2022-08-31T06:14:46.300Z,93050.78
2022-08-31T06:17:30.943Z,93049.69
2022-08-31T06:20:18.007Z,93053.13
2022-08-31T06:23:03.048Z,93053.56
2022-08-31T06:26:04.089Z,93053.16
2022-08-31T06:28:48.718Z,93059.78
2022-08-31T06:31:34.457Z,93052.41
2022-08-31T06:34:19.310Z,93055.63
2022-08-31T06:37:21.943Z,93067.25
2022-08-31T06:40:18.828Z,93058.44
2022-08-31T06:43:24.507Z,93056.44
2022-08-31T06:46:17.591Z,93064.69
2022-08-31T06:49:20.431Z,93064.31
2022-08-31T06:52:04.026Z,93063.47
2022-08-31T06:54:50.693Z,93063.47
2022-08-31T06:58:00.169Z,93059.88
2022-08-31T07:01:14.873Z,93065.28
2022-08-31T07:04:28.738Z,93066.09
2022-08-31T07:07:12.152Z,93071.13
2022-08-31T07:10:00.089Z,93072.91
2022-08-31T07:12:43.962Z,93070.09
2022-08-31T07:15:27.050Z,93069.50
2022-08-31T07:18:10.603Z,93072.47
2022-08-31T07:20:54.066Z,93073.25
2022-08-31T07:23:41.863Z,93074.22
2022-08-31T07:26:36.259Z,93070.03
2022-08-31T07:29:23.912Z,93077.66
2022-08-31T07:32:07.908Z,93081.03
2022-08-31T07:34:58.576Z,93078.06
2022-08-31T07:38:03.859Z,93089.50
2022-08-31T07:41:06.403Z,93085.31
2022-08-31T07:43:54.072Z,93087.34
2022-08-31T07:46:37.194Z,93091.16
2022-08-31T07:49:20.530Z,93095.00
2022-08-31T07:52:16.099Z,93093.19
2022-08-31T07:55:37.805Z,93098.59
2022-08-31T07:58:27.989Z,93101.19
2022-08-31T08:01:14.383Z,93095.63
2022-08-31T08:04:02.131Z,93099.84
2022-08-31T08:07:06.034Z,93101.00
2022-08-31T08:10:14.467Z,93098.81
2022-08-31T08:13:22.028Z,93101.78
2022-08-31T08:16:09.611Z,93098.78
2022-08-31T08:19:18.784Z,93107.13
2022-08-31T08:22:03.513Z,93100.91
2022-08-31T08:24:58.060Z,93104.69
2022-08-31T08:27:58.554Z,93101.91
2022-08-31T08:30:47.330Z,93100.91
2022-08-31T08:33:31.206Z,93107.09
2022-08-31T08:36:18.220Z,93105.94
2022-08-31T08:39:02.905Z,93103.34
2022-08-31T08:41:48.464Z,93113.34
2022-08-31T08:44:34.174Z,93104.34
2022-08-31T08:47:19.017Z,93109.19
2022-08-31T08:50:09.051Z,93116.41
2022-08-31T08:52:57.966Z,93111.59
2022-08-31T08:55:43.430Z,93114.81
2022-08-31T08:58:26.964Z,93114.41
2022-08-31T09:01:11.494Z,93123.44
2022-08-31T09:04:06.803Z,93120.28
2022-08-31T09:07:21.130Z,93124.47
2022-08-31T09:10:15.349Z,93129.69
2022-08-31T09:13:10.432Z,93124.47
2022-08-31T09:16:12.066Z,93139.66
2022-08-31T09:18:57.706Z,93125.00
2022-08-31T09:21:45.932Z,93132.00
2022-08-31T09:24:30.255Z,93129.16
2022-08-31T09:27:57.077Z,93131.50
2022-08-31T09:30:50.877Z,93139.28
2022-08-31T09:33:35.875Z,93135.06
2022-08-31T09:36:22.559Z,93139.28
2022-08-31T09:39:24.885Z,93146.50
2022-08-31T09:42:18.321Z,93138.16
2022-08-31T09:45:09.668Z,93134.34
2022-08-31T09:47:56.108Z,93136.59
2022-08-31T09:50:45.119Z,93143.41
2022-08-31T09:53:46.131Z,93141.97
2022-08-31T09:56:30.276Z,93140.97
2022-08-31T09:59:13.254Z,93146.38
2022-08-31T10:02:01.264Z,93147.16
2022-08-31T10:04:52.321Z,93140.97
2022-08-31T10:07:43.275Z,93142.16
2022-08-31T10:10:31.434Z,93151.16
2022-08-31T10:13:19.919Z,93150.09
2022-08-31T10:16:14.559Z,93144.09
2022-08-31T10:19:06.318Z,93149.88
2022-08-31T10:21:54.088Z,93150.03
2022-08-31T10:24:46.197Z,93153.19
2022-08-31T10:27:38.565Z,93149.19
2022-08-31T10:30:32.328Z,93151.16
2022-08-31T10:33:19.312Z,93153.88
2022-08-31T10:36:08.105Z,93152.19
2022-08-31T10:38:54.291Z,93147.56
2022-08-31T10:41:47.542Z,93149.53
2022-08-31T10:44:36.343Z,93150.75
2022-08-31T10:47:32.611Z,93150.91
2022-08-31T10:50:33.111Z,93152.03
2022-08-31T10:53:34.898Z,93152.41
2022-08-31T10:56:35.502Z,93152.59
2022-08-31T10:59:30.173Z,93158.66
2022-08-31T11:02:36.777Z,93155.94
2022-08-31T11:05:33.298Z,93159.38
2022-08-31T11:08:35.174Z,93157.59
2022-08-31T11:11:31.882Z,93165.19
2022-08-31T11:14:31.432Z,93159.84
2022-08-31T11:17:32.305Z,93162.81
2022-08-31T11:20:41.104Z,93161.19
2022-08-31T11:23:44.921Z,93167.13
2022-08-31T11:26:51.411Z,93164.84
2022-08-31T11:29:43.225Z,93171.16
2022-08-31T11:32:34.273Z,93168.13
2022-08-31T11:36:06.071Z,93169.69
2022-08-31T11:38:54.698Z,93175.41
2022-08-31T11:41:46.764Z,93170.63
2022-08-31T11:45:07.085Z,93167.81
2022-08-31T11:47:54.790Z,93175.69
2022-08-31T11:51:04.162Z,93181.50
2022-08-31T11:53:49.398Z,93180.88
2022-08-31T11:56:36.503Z,93187.88
2022-08-31T11:59:23.280Z,93189.50
2022-08-31T12:02:43.811Z,93187.06
2022-08-31T12:05:42.745Z,93190.22
2022-08-31T12:08:28.973Z,93193.91
2022-08-31T12:11:19.173Z,93198.59
2022-08-31T12:14:10.054Z,93197.47
2022-08-31T12:17:03.321Z,93198.19
2022-08-31T12:20:01.862Z,93204.72
2022-08-31T12:23:35.157Z,93207.06
2022-08-31T12:26:34.173Z,93199.22
2022-08-31T12:29:26.791Z,93201.09
2022-08-31T12:32:17.982Z,93208.03
2022-08-31T12:35:13.090Z,93210.00
2022-08-31T12:37:59.950Z,93208.56
2022-08-31T12:40:44.995Z,93207.25
2022-08-31T12:43:36.503Z,93208.53
2022-08-31T12:46:35.024Z,93210.81
2022-08-31T12:49:41.742Z,93207.72
2022-08-31T12:52:40.557Z,93203.50
2022-08-31T12:55:32.360Z,93206.53
2022-08-31T12:58:36.461Z,93211.72
2022-08-31T13:01:24.033Z,93212.50
2022-08-31T13:04:07.106Z,93213.53
2022-08-31T13:06:50.135Z,93205.91
2022-08-31T13:09:35.593Z,93219.69
2022-08-31T13:12:23.994Z,93214.66
2022-08-31T13:15:22.926Z,93215.03
2022-08-31T13:18:11.152Z,93216.19
2022-08-31T13:20:56.573Z,93214.41
2022-08-31T13:23:41.451Z,93215.66
2022-08-31T13:26:25.854Z,93219.50
2022-08-31T13:29:10.160Z,93215.56
2022-08-31T13:31:54.727Z,93220.13
2022-08-31T13:34:42.037Z,93217.09
2022-08-31T13:37:31.339Z,93213.06
2022-08-31T13:40:19.392Z,93215.41
2022-08-31T13:43:02.779Z,93215.56
2022-08-31T13:45:58.237Z,93217.38
2022-08-31T13:48:43.164Z,93218.16
2022-08-31T13:51:27.577Z,93211.56
2022-08-31T13:54:15.139Z,93213.34
2022-08-31T13:57:17.932Z,93214.59
2022-08-31T14:00:26.799Z,93218.34
2022-08-31T14:03:33.159Z,93212.84
2022-08-31T14:06:23.993Z,93212.78
2022-08-31T14:09:18.709Z,93212.28
2022-08-31T14:12:05.374Z,93210.31
2022-08-31T14:14:48.992Z,93212.91
2022-08-31T14:17:33.052Z,93209.34
2022-08-31T14:20:30.901Z,93210.38
2022-08-31T14:23:33.120Z,93212.97
2022-08-31T14:26:18.702Z,93219.09
2022-08-31T14:29:04.068Z,93214.47
2022-08-31T14:31:52.274Z,93213.63
2022-08-31T14:34:36.928Z,93215.88
2022-08-31T14:37:22.318Z,93209.69
2022-08-31T14:40:08.860Z,93211.94
2022-08-31T14:42:51.976Z,93217.38
2022-08-31T14:45:37.007Z,93217.13
2022-08-31T14:48:20.376Z,93212.47
2022-08-31T14:51:06.511Z,93221.78
2022-08-31T14:53:51.883Z,93218.13
2022-08-31T14:56:45.344Z,93214.31
2022-08-31T14:59:29.113Z,93224.50
2022-08-31T15:02:16.340Z,93218.06
2022-08-31T15:05:04.635Z,93215.81
2022-08-31T15:07:49.130Z,93213.41
2022-08-31T15:10:32.255Z,93211.16
2022-08-31T15:13:16.720Z,93204.38
2022-08-31T15:16:00.020Z,93201.53
2022-08-31T15:18:43.701Z,93205.63
2022-08-31T15:21:29.158Z,93203.03
2022-08-31T15:24:12.129Z,93210.66
2022-08-31T15:26:59.700Z,93204.28
2022-08-31T15:29:45.503Z,93203.56
2022-08-31T15:32:28.542Z,93201.41
2022-08-31T15:35:14.221Z,93199.78
2022-08-31T15:38:01.322Z,93204.56
2022-08-31T15:40:44.445Z,93201.59
2022-08-31T15:43:27.586Z,93192.81
2022-08-31T15:46:14.150Z,93200.84
2022-08-31T15:48:56.346Z,93187.50
2022-08-31T15:51:50.213Z,93190.75
2022-08-31T15:54:35.896Z,93186.34
2022-08-31T15:57:19.046Z,93187.78
2022-08-31T16:00:02.091Z,93186.78
2022-08-31T16:02:49.478Z,93186.97
2022-08-31T16:05:39.285Z,93182.31
2022-08-31T16:08:28.473Z,93186.09
2022-08-31T16:11:12.622Z,93179.84
2022-08-31T16:13:59.780Z,93179.38
2022-08-31T16:16:45.369Z,93182.78
2022-08-31T16:19:35.382Z,93182.97
2022-08-31T16:22:20.945Z,93178.31
2022-08-31T16:25:06.667Z,93184.25
2022-08-31T16:27:49.879Z,93172.19
2022-08-31T16:30:33.658Z,93180.13
2022-08-31T16:33:16.685Z,93174.16
2022-08-31T16:36:01.105Z,93172.19
2022-08-31T16:38:44.287Z,93172.63
2022-08-31T16:41:30.633Z,93180.84
2022-08-31T16:44:19.931Z,93179.84
2022-08-31T16:47:03.619Z,93176.56
2022-08-31T16:49:46.872Z,93181.81
2022-08-31T16:52:32.501Z,93181.56
2022-08-31T16:55:16.079Z,93185.47
2022-08-31T16:57:59.174Z,93180.84
2022-08-31T17:00:42.442Z,93184.75
2022-08-31T17:03:25.521Z,93185.50
2022-08-31T17:06:09.398Z,93185.84
2022-08-31T17:08:59.384Z,93183.75
2022-08-31T17:11:45.001Z,93188.34
2022-08-31T17:14:33.953Z,93190.31
2022-08-31T17:17:19.389Z,93180.28
2022-08-31T17:20:02.684Z,93189.41
2022-08-31T17:22:48.681Z,93181.97
2022-08-31T17:25:36.985Z,93188.97
2022-08-31T17:28:26.002Z,93190.56
2022-08-31T17:31:09.360Z,93200.50
2022-08-31T17:33:52.424Z,93193.06
2022-08-31T17:36:37.688Z,93200.84
2022-08-31T17:39:22.295Z,93201.00
2022-08-31T17:42:07.356Z,93202.72
2022-08-31T17:44:53.107Z,93207.25
2022-08-31T17:47:36.217Z,93209.03
2022-08-31T17:50:21.325Z,93211.19
2022-08-31T17:53:04.666Z,93211.91
2022-08-31T17:55:54.827Z,93212.94
2022-08-31T17:58:39.284Z,93220.78
2022-08-31T18:01:27.711Z,93226.31
2022-08-31T18:04:12.730Z,93230.84
2022-08-31T18:06:56.792Z,93239.63
2022-08-31T18:09:41.877Z,93241.91
2022-08-31T18:12:25.840Z,93238.06
2022-08-31T18:15:12.461Z,93242.81
2022-08-31T18:17:56.282Z,93250.44
2022-08-31T18:20:39.867Z,93245.50
2022-08-31T18:23:23.685Z,93249.72
2022-08-31T18:26:15.309Z,93258.47
2022-08-31T18:28:59.420Z,93263.38
2022-08-31T18:31:45.754Z,93263.22
2022-08-31T18:34:28.888Z,93263.06
2022-08-31T18:37:13.451Z,93262.16
2022-08-31T18:40:14.092Z,93263.63
2022-08-31T18:43:15.373Z,93265.72
2022-08-31T18:45:58.421Z,93262.69
2022-08-31T18:49:01.136Z,93266.41
2022-08-31T18:51:57.096Z,93263.84
2022-08-31T18:54:40.199Z,93266.13
2022-08-31T18:57:25.506Z,93264.84
2022-08-31T19:00:10.094Z,93271.97
2022-08-31T19:02:53.751Z,93270.84
2022-08-31T19:05:40.997Z,93265.34
2022-08-31T19:08:24.104Z,93263.09
2022-08-31T19:11:08.344Z,93259.06
2022-08-31T19:13:52.517Z,93255.81
2022-08-31T19:16:35.882Z,93261.97
2022-08-31T19:19:19.572Z,93265.69
2022-08-31T19:22:04.182Z,93264.41
2022-08-31T19:24:47.261Z,93266.19
2022-08-31T19:27:31.441Z,93267.31
2022-08-31T19:30:15.431Z,93267.31
2022-08-31T19:32:59.326Z,93271.53
2022-08-31T19:35:42.405Z,93271.53
2022-08-31T19:38:27.385Z,93268.94
2022-08-31T19:41:16.242Z,93262.31
2022-08-31T19:44:08.562Z,93263.44
2022-08-31T19:46:53.138Z,93254.19
2022-08-31T19:49:36.687Z,93253.56
2022-08-31T19:52:20.155Z,93255.50
2022-08-31T19:55:09.133Z,93252.91
2022-08-31T19:57:53.087Z,93250.50
2022-08-31T20:00:36.300Z,93244.50
2022-08-31T20:03:19.649Z,93247.44
2022-08-31T20:06:07.221Z,93246.47
2022-08-31T20:08:51.634Z,93243.72
2022-08-31T20:11:37.226Z,93244.19
2022-08-31T20:14:22.125Z,93243.84
2022-08-31T20:17:08.512Z,93248.75
2022-08-31T20:19:52.276Z,93245.84
2022-08-31T20:22:36.337Z,93242.41
2022-08-31T20:25:25.408Z,93239.19
2022-08-31T20:28:09.804Z,93236.78
2022-08-31T20:30:55.113Z,93240.31
2022-08-31T20:33:38.920Z,93236.44
2022-08-31T20:36:26.581Z,93238.88
2022-08-31T20:39:12.562Z,93235.13
2022-08-31T20:41:59.049Z,93231.75
2022-08-31T20:44:49.095Z,93231.59
2022-08-31T20:47:49.603Z,93234.66
2022-08-31T20:50:35.726Z,93237.91
2022-08-31T20:53:25.048Z,93235.50
2022-08-31T20:56:26.229Z,93233.88
2022-08-31T20:59:10.449Z,93238.72
2022-08-31T21:01:59.310Z,93245.50
2022-08-31T21:04:45.270Z,93239.19
2022-08-31T21:07:28.940Z,93247.75
2022-08-31T21:10:12.157Z,93244.38
2022-08-31T21:12:57.880Z,93243.06
2022-08-31T21:15:45.856Z,93248.38
2022-08-31T21:18:31.146Z,93250.00
2022-08-31T21:21:16.499Z,93249.69
2022-08-31T21:23:59.668Z,93252.91
2022-08-31T21:26:42.936Z,93248.38
2022-08-31T21:29:28.219Z,93251.63
2022-08-31T21:32:12.003Z,93254.03
2022-08-31T21:34:57.904Z,93254.03
2022-08-31T21:37:41.473Z,93244.66
2022-08-31T21:40:24.493Z,93253.56
2022-08-31T21:43:07.485Z,93246.13
2022-08-31T21:46:01.274Z,93251.81
2022-08-31T21:48:45.853Z,93243.41
2022-08-31T21:51:32.672Z,93243.91
2022-08-31T21:54:17.084Z,93235.31
2022-08-31T21:57:02.510Z,93238.53
2022-08-31T21:59:45.506Z,93235.16
2022-08-31T22:02:28.918Z,93239.34
2022-08-31T22:05:12.557Z,93234.81
2022-08-31T22:07:56.951Z,93231.91
2022-08-31T22:10:41.921Z,93231.41
2022-08-31T22:13:24.941Z,93228.34
2022-08-31T22:16:16.159Z,93226.06
2022-08-31T22:19:02.687Z,93232.38
2022-08-31T22:21:48.332Z,93236.28
2022-08-31T22:24:35.934Z,93232.56
2022-08-31T22:27:19.151Z,93237.44
2022-08-31T22:30:04.580Z,93233.50
2022-08-31T22:32:47.930Z,93235.78
2022-08-31T22:35:31.188Z,93235.16
2022-08-31T22:38:15.720Z,93237.91
2022-08-31T22:41:07.511Z,93241.13
2022-08-31T22:43:50.487Z,93237.75
2022-08-31T22:46:34.839Z,93241.94
2022-08-31T22:49:18.245Z,93240.00
2022-08-31T22:52:01.538Z,93238.06
2022-08-31T22:54:44.544Z,93234.34
2022-08-31T22:57:29.006Z,93239.34
2022-08-31T23:00:13.175Z,93231.59
2022-08-31T23:02:56.141Z,93230.81
2022-08-31T23:05:42.282Z,93228.53
2022-08-31T23:08:25.223Z,93225.44
2022-08-31T23:11:08.829Z,93226.09
2022-08-31T23:13:56.573Z,93224.16
2022-08-31T23:16:43.423Z,93222.53
2022-08-31T23:19:30.609Z,93232.22
2022-08-31T23:22:15.612Z,93227.56
2022-08-31T23:25:00.690Z,93227.41
2022-08-31T23:27:45.047Z,93231.44
2022-08-31T23:30:29.374Z,93232.22
2022-08-31T23:33:12.396Z,93230.28
2022-08-31T23:35:56.078Z,93232.53
2022-08-31T23:38:39.421Z,93230.31
2022-08-31T23:41:25.913Z,93232.41
2022-08-31T23:44:10.529Z,93224.31
2022-08-31T23:46:55.094Z,93222.53
2022-08-31T23:49:38.615Z,93229.50
2022-08-31T23:52:23.376Z,93229.50
2022-08-31T23:55:07.054Z,93219.94
2022-08-31T23:57:50.091Z,93224.78
